KEMT

Details ICAO KEMT
Name El Monte
Region United States
Timezone America/Los_Angeles (UTC-8.0)
Plans Departing 30
Arriving 17
Stats Elevation 296 ft / 90 m (AMSL)
Location 34.085999° -118.034840°
Runways 1
Magnetic Variation 11.960° E
Sunrise 2017-12-11 14:49:20 UTC / 2017-12-11 06:49:20 Local
Sunset 2017-12-12 00:44:39 UTC / 2017-12-11 16:44:39 Local
Advertisement - Login to hide

Runways

ID Width Length Bearing (true) Bearing (mag) Surface Threshold Offset Overrun Length
01 75 ft / 23 m 4,002 ft / 1,220 m 25.32° 13.36° Asphalt 289 ft / 88 m 0 ft / 0 m
19 75 ft / 23 m 4,002 ft / 1,220 m 205.33° 193.37° Asphalt 640 ft / 195 m 0 ft / 0 m

Map

Weather


0- 5 10 15 20 25 30 35+ Temperature / ° C

Clouds and Precipitation
Forecast for 2017-12-12 00:00 UTC. Updated an hour ago

Ground ~20,000 ft ~40,000 ft Winds

METAR

KEMT 112345Z 22003KT 10SM CLR 25/M06 A3015

TAF

Not found

Frequencies

Recorded 118.75 MHz ATIS
Unicom 122.95 MHz UNICOM
Tower 121.20 MHz TWR
Unicom 121.20 MHz CTAF
Ground 125.90 MHz GND
Approach 125.50 MHz SOCAL APP/DEP
Warning: Do not use this data for real-world aviation or navigation. No guarantee of current accuracy is given.